Catherine — 9HA4113 — position and weather

sailwx.info

Track history (hours):
 
Tides and Currents Weather Stations Pressure Air Temp Water Temp Dewpoint Dewpoint Depression Visibility Wind Speed Wind Dir Waves Ship Positions

Catherine

Last reported at 2018-Jun-21 18:00 UTC. Time now 2018-Jun-21 18:02 UTC.
Position N 51°54' E 004°14'.

Length 182 m; draft 7 m.

Type: Ship (hazmat cat A). MMSI: 249107000.

Date/timePositionNaut miles runAvg speedWind from/ knotsBaromVisibWave heightAir tempDewpointWater temp
2018-Jun-21 18:00N 51°54' E 004°14'0 0.0
2018-Jun-21 17:30N 51°54' E 004°14'0 0.8
2018-Jun-21 17:00N 51°54' E 004°14'2 4.2
2018-Jun-21 16:30N 51°56' E 004°12'3 6.4
2018-Jun-21 16:00N 51°58' E 004°07'510.7
2018-Jun-21 15:30N 51°60' E 003°59'511.0
2018-Jun-21 15:01N 51°59' E 003°51'510.7
2018-Jun-21 14:30N 51°58' E 003°42'714.0
2018-Jun-21 14:00N 51°56' E 003°31'712.3
2018-Jun-21 13:26N 51°54' E 003°20'3111.2
2018-Jun-21 10:39N 51°42' E 002°34'211.1
2018-Jun-21 10:29N 51°40' E 002°32'511.3
2018-Jun-21 10:00N 51°36' E 002°26'611.6
2018-Jun-21 09:29N 51°32' E 002°20'611.7
2018-Jun-21 09:00N 51°27' E 002°15'612.4
2018-Jun-21 08:30N 51°21' E 002°10'612.7
2018-Jun-21 08:00N 51°16' E 002°06'612.9
2018-Jun-21 07:31N 51°12' E 001°58'713.7
2018-Jun-21 07:00N 51°08' E 001°49'612.3
2018-Jun-21 06:30N 51°04' E 001°42'612.5
2018-Jun-21 06:00N 50°59' E 001°35'713.7
2018-Jun-21 05:30N 50°54' E 001°29'1213.6
2018-Jun-21 04:39N 50°43' E 001°21'612.9
2018-Jun-21 04:12N 50°39' E 001°14'1212.8
2018-Jun-21 03:17N 50°31' E 001°01'412.8
2018-Jun-21 03:00N 50°30' E 000°56'613.0
2018-Jun-21 02:30N 50°28' E 000°46'712.8
2018-Jun-21 01:57N 50°26' E 000°35'813.5
2018-Jun-21 01:23N 50°24' E 000°24'1613.5
2018-Jun-21 00:11N 50°20' W 000°01'313.2
2018-Jun-20 23:57N 50°19' W 000°06'613.2
2018-Jun-20 23:30N 50°17' W 000°14'1413.3
2018-Jun-20 22:27N 50°13' W 000°36'8613.1
2018-Jun-20 15:55N 49°50' W 002°44'512.7
2018-Jun-20 15:30N 49°48' W 002°52'812.8
2018-Jun-20 14:51N 49°44' W 003°03'512.8
2018-Jun-20 14:27N 49°41' W 003°09'6212.9
2018-Jun-20 09:40N 49°11' W 004°32'213.3
2018-Jun-20 09:30N 49°09' W 004°35'1213.3
2018-Jun-20 08:35N 49°03' W 004°51'213.3
2018-Jun-20 08:24N 49°02' W 004°54'716.4
2018-Jun-20 08:00N 48°59' W 005°03'1017.3
2018-Jun-20 07:25N 48°54' W 005°16'717.5
2018-Jun-20 07:00N 48°50' W 005°26'1017.2
2018-Jun-20 06:27N 48°45' W 005°38'817.4
2018-Jun-20 05:59N 48°38' W 005°43'2017.0
2018-Jun-20 04:47N 48°20' W 005°57'1916.9
2018-Jun-20 03:39N 48°03' W 006°12'42414.7
2018-Jun-18 22:45N 41°13' W 008°47'414.5
2018-Jun-18 22:30N 41°10' W 008°43'1 2.4
2018-Jun-18 22:00N 41°11' W 008°42'0 0.0
2018-Jun-18 21:30N 41°11' W 008°42'0 0.0
2018-Jun-18 21:00N 41°11' W 008°42'0 0.0
2018-Jun-18 20:30N 41°11' W 008°42'0 0.0
2018-Jun-18 20:00N 41°11' W 008°42'0 0.0
2018-Jun-18 19:30N 41°11' W 008°42'0 0.0
2018-Jun-18 19:00N 41°11' W 008°42'0 0.0
2018-Jun-18 18:30N 41°11' W 008°42'0 0.0
2018-Jun-18 17:59N 41°11' W 008°42'0 0.0
2018-Jun-18 17:30N 41°11' W 008°42'0 0.0
2018-Jun-18 17:00N 41°11' W 008°42'0 0.0
2018-Jun-18 16:30N 41°11' W 008°42'0 0.0
2018-Jun-18 16:00N 41°11' W 008°42'0 0.0
2018-Jun-18 15:29N 41°11' W 008°42'0 0.0
2018-Jun-18 15:00N 41°11' W 008°42'0 0.0
2018-Jun-18 14:30N 41°11' W 008°42'0 0.0
2018-Jun-18 14:00N 41°11' W 008°42'0 0.0
2018-Jun-18 13:30N 41°11' W 008°42'0 0.0
2018-Jun-18 13:00N 41°11' W 008°42'0 0.0
2018-Jun-18 12:30N 41°11' W 008°42'0 0.0
2018-Jun-18 12:00N 41°11' W 008°42'0 0.0
2018-Jun-18 11:25N 41°11' W 008°42'0 0.0
2018-Jun-18 11:00N 41°11' W 008°42'0 0.0
2018-Jun-18 10:30N 41°11' W 008°42'0 0.0
2018-Jun-18 10:00N 41°11' W 008°42'0 0.0
2018-Jun-18 09:29N 41°11' W 008°42'0 0.0
2018-Jun-18 08:59N 41°11' W 008°42'0 0.0
2018-Jun-18 08:31N 41°11' W 008°42'0 0.0
2018-Jun-18 08:00N 41°11' W 008°42'0 0.0
2018-Jun-18 07:30N 41°11' W 008°42'0 0.0
2018-Jun-18 06:57N 41°11' W 008°42'0 0.7
2018-Jun-18 06:31N 41°11' W 008°42'2 4.5
2018-Jun-18 06:00N 41°09' W 008°45'56213.4
2018-Jun-16 12:06N 49°45' W 003°27'216.6
2018-Jun-16 12:00N 49°46' W 003°25'816.0
2018-Jun-16 11:30N 49°51' W 003°15'815.4
2018-Jun-16 11:00N 49°55' W 003°04'714.9
2018-Jun-16 10:30N 49°58' W 002°54'714.3
2018-Jun-16 10:00N 50°00' W 002°43'713.8
2018-Jun-16 09:30N 50°02' W 002°33'2013.3
2018-Jun-16 07:58N 50°10' W 002°03'1114.4
2018-Jun-16 07:12N 50°11' W 001°46'315.6
2018-Jun-16 06:58N 50°12' W 001°41'1817.1
2018-Jun-16 05:54N 50°17' W 001°13'1019.1
2018-Jun-16 05:24N 50°20' W 000°59'819.5
2018-Jun-16 05:00N 50°22' W 000°47'1719.3
2018-Jun-16 04:08N 50°27' W 000°22'418.7
2018-Jun-16 03:56N 50°28' W 000°17'918.3
2018-Jun-16 03:27N 50°31' W 000°03'818.0
2018-Jun-16 02:59N 50°33' E 000°10'817.7
2018-Jun-16 02:30N 50°35' E 000°22'917.2
2018-Jun-16 02:00N 50°38' E 000°35'816.3
2018-Jun-16 01:30N 50°43' E 000°46'815.6
2018-Jun-16 01:00N 50°47' E 000°56'815.1
2018-Jun-16 00:29N 50°52' E 001°05'714.8
2018-Jun-16 00:00N 50°57' E 001°14'714.7
2018-Jun-15 23:31N 51°02' E 001°23'816.1
2018-Jun-15 23:00N 51°07' E 001°33'917.2
2018-Jun-15 22:30N 51°12' E 001°43'816.2
2018-Jun-15 22:01N 51°19' E 001°51'816.1
2018-Jun-15 21:30N 51°26' E 001°57'918.7
2018-Jun-15 21:00N 51°32' E 002°08'918.4
2018-Jun-15 20:30N 51°39' E 002°18'918.1
2018-Jun-15 20:00N 51°46' E 002°27'917.3
2018-Jun-15 19:30N 51°53' E 002°36'816.8
2018-Jun-15 19:00N 51°58' E 002°46'815.9
2018-Jun-15 18:30N 52°01' E 002°58'817.0
2018-Jun-15 18:00N 52°02' E 003°12'816.8
2018-Jun-15 17:30N 52°02' E 003°26'816.5
2018-Jun-15 17:00N 52°03' E 003°39'815.7
2018-Jun-15 16:31N 52°03' E 003°52'3 5.4
2018-Jun-15 16:01N 52°02' E 003°55'5 9.6
2018-Jun-15 15:30N 51°60' E 004°02'510.2
2018-Jun-15 15:00N 51°57' E 004°09'4 7.2
2018-Jun-15 14:30N 51°55' E 004°13'1 1.4
2018-Jun-15 14:00N 51°54' E 004°14'0 0.0
2018-Jun-15 13:30N 51°54' E 004°14'0 0.0
2018-Jun-15 13:00N 51°54' E 004°14'0 0.0
2018-Jun-15 12:30N 51°54' E 004°14'0 0.0
2018-Jun-15 12:00N 51°54' E 004°14'0 0.0
2018-Jun-15 11:30N 51°54' E 004°14'0 0.0
2018-Jun-15 11:00N 51°54' E 004°14'0 0.0
2018-Jun-15 10:30N 51°54' E 004°14'0 0.0
2018-Jun-15 10:00N 51°54' E 004°14'0 0.0
2018-Jun-15 09:30N 51°54' E 004°14'0 0.0
2018-Jun-15 09:00N 51°54' E 004°14'0 0.0
2018-Jun-15 08:30N 51°54' E 004°14'0 0.0
2018-Jun-15 08:00N 51°54' E 004°14'0 0.0
2018-Jun-15 07:30N 51°54' E 004°14'0 0.0
2018-Jun-15 07:00N 51°54' E 004°14'0 0.0
2018-Jun-15 06:30N 51°54' E 004°14'0 0.0
2018-Jun-15 06:00N 51°54' E 004°14'0 0.0
2018-Jun-15 05:30N 51°54' E 004°14'0 0.0
2018-Jun-15 05:00N 51°54' E 004°14'0 0.0
2018-Jun-15 04:30N 51°54' E 004°14'0 0.0
2018-Jun-15 04:00N 51°54' E 004°14'0 0.0
2018-Jun-15 03:30N 51°54' E 004°14'0 0.0
2018-Jun-15 03:00N 51°54' E 004°14'0 0.0
2018-Jun-15 02:30N 51°54' E 004°14'0 0.0
2018-Jun-15 02:00N 51°54' E 004°14'0 0.0
2018-Jun-15 01:30N 51°54' E 004°14'0 0.0
2018-Jun-15 01:00N 51°54' E 004°14'0 0.0
2018-Jun-15 00:00N 51°54' E 004°14'0 0.0
2018-Jun-14 23:30N 51°54' E 004°14'0 0.0
2018-Jun-14 23:00N 51°54' E 004°14'0 0.0
2018-Jun-14 22:30N 51°54' E 004°14'0 0.0
2018-Jun-14 22:00N 51°54' E 004°14'0 0.0
2018-Jun-14 21:30N 51°54' E 004°14'0 0.0
2018-Jun-14 21:00N 51°54' E 004°14'0 0.0
2018-Jun-14 20:30N 51°54' E 004°14'0 0.0
2018-Jun-14 20:00N 51°54' E 004°14'0 0.0
2018-Jun-14 19:30N 51°54' E 004°14'0 0.0
2018-Jun-14 19:00N 51°54' E 004°14'0 0.0
2018-Jun-14 18:30N 51°54' E 004°14'0 0.0
2018-Jun-14 18:00N 51°54' E 004°14'0 0.0
2018-Jun-14 17:30N 51°54' E 004°14'0 0.1
2018-Jun-14 17:00N 51°54' E 004°14'1 2.9
2018-Jun-14 16:30N 51°55' E 004°13'4 7.6
2018-Jun-14 16:00N 51°58' E 004°08'611.7
2018-Jun-14 15:31N 51°60' E 003°59'611.7
2018-Jun-14 15:00N 52°00' E 003°50'611.4
2018-Jun-14 14:30N 51°58' E 003°41'611.2
2018-Jun-14 14:00N 51°57' E 003°32'611.3
2018-Jun-14 13:30N 51°55' E 003°24'611.4
2018-Jun-14 13:01N 51°53' E 003°15'2711.4
2018-Jun-14 10:39N 51°43' E 002°35'212.6
2018-Jun-14 10:28N 51°41' E 002°33'612.3
2018-Jun-14 10:00N 51°37' E 002°27'611.8
2018-Jun-14 09:30N 51°32' E 002°20'612.5
2018-Jun-14 09:00N 51°28' E 002°14'612.5
2018-Jun-14 08:30N 51°22' E 002°09'611.6
2018-Jun-14 08:01N 51°17' E 002°05'612.1
2018-Jun-14 07:31N 51°12' E 001°59'713.2
2018-Jun-14 07:00N 51°09' E 001°49'612.7
2018-Jun-14 06:30N 51°05' E 001°42'612.9
2018-Jun-14 06:00N 51°00' E 001°35'713.2
2018-Jun-14 05:30N 50°56' E 001°27'713.5
2018-Jun-14 05:00N 50°49' E 001°24'713.6
2018-Jun-14 04:30N 50°43' E 001°20'713.8
2018-Jun-14 04:00N 50°38' E 001°12'713.8
2018-Jun-14 03:31N 50°34' E 001°04'713.6
2018-Jun-14 03:00N 50°31' E 000°55'713.8
2018-Jun-14 02:31N 50°28' E 000°45'713.8
2018-Jun-14 02:00N 50°26' E 000°34'1013.7
2018-Jun-14 01:17N 50°23' E 000°19'413.5
2018-Jun-14 01:00N 50°22' E 000°14'713.5
2018-Jun-14 00:30N 50°21' E 000°03'713.7
2018-Jun-14 00:00N 50°19' W 000°07'713.7
2018-Jun-13 23:31N 50°17' W 000°17'713.2
2018-Jun-13 23:00N 50°16' W 000°27'713.1
2018-Jun-13 22:30N 50°13' W 000°37'713.1
2018-Jun-13 22:00N 50°11' W 000°47'713.4
2018-Jun-13 21:30N 50°09' W 000°57'713.4
2018-Jun-13 20:58N 50°07' W 001°08'613.4
2018-Jun-13 20:30N 50°06' W 001°17'713.6
2018-Jun-13 20:00N 50°04' W 001°27'713.5
2018-Jun-13 19:30N 50°02' W 001°37'713.6
2018-Jun-13 19:00N 49°60' W 001°47'713.6
2018-Jun-13 18:31N 49°58' W 001°57'713.9
2018-Jun-13 18:01N 49°56' W 002°08'1014.1
2018-Jun-13 17:19N 49°53' W 002°22'514.2
2018-Jun-13 16:56N 49°52' W 002°30'614.7
2018-Jun-13 16:30N 49°51' W 002°40'714.5
2018-Jun-13 16:00N 49°49' W 002°51'714.6
2018-Jun-13 15:31N 49°45' W 003°00'814.0
2018-Jun-13 14:55N 49°40' W 003°11'7414.3
2018-Jun-13 09:45N 49°04' W 004°49'514.6
2018-Jun-13 09:27N 49°02' W 004°55'1314.7
2018-Jun-13 08:34N 48°55' W 005°13'114.9
2018-Jun-13 08:30N 48°55' W 005°14'48614.7
2018-Jun-11 23:32N 41°13' W 008°47'115.8
2018-Jun-11 23:30N 41°12' W 008°46'3 6.6
2018-Jun-11 23:01N 41°11' W 008°42'0 0.5
2018-Jun-11 22:30N 41°11' W 008°42'0 0.0
2018-Jun-11 21:59N 41°11' W 008°42'0 0.0
2018-Jun-11 21:29N 41°11' W 008°42'0 0.0
2018-Jun-11 20:59N 41°11' W 008°42'0 0.0
2018-Jun-11 20:29N 41°11' W 008°42'0 0.0
2018-Jun-11 19:59N 41°11' W 008°42'0 0.0
2018-Jun-11 19:29N 41°11' W 008°42'0 0.0
2018-Jun-11 18:59N 41°11' W 008°42'0 0.0
2018-Jun-11 18:29N 41°11' W 008°42'  
Track history (hours):
 
Tides and Currents Weather Stations Pressure Air Temp Water Temp Dewpoint Dewpoint Depression Visibility Wind Speed Wind Dir Waves Ship Positions

Catherine

Last reported at 2018-Jun-21 18:00 UTC. Time now 2018-Jun-21 18:02 UTC.
Position N 51°54' E 004°14'.

Length 182 m; draft 7 m.

Type: Ship (hazmat cat A). MMSI: 249107000.

Date/timePositionNaut miles runAvg speedWind from/ knotsBaromVisibWave heightAir tempDewpointWater temp
2018-Jun-21 18:00N 51°54' E 004°14'0 0.0
2018-Jun-21 17:30N 51°54' E 004°14'0 0.8
2018-Jun-21 17:00N 51°54' E 004°14'2 4.2
2018-Jun-21 16:30N 51°56' E 004°12'3 6.4
2018-Jun-21 16:00N 51°58' E 004°07'510.7
2018-Jun-21 15:30N 51°60' E 003°59'511.0
2018-Jun-21 15:01N 51°59' E 003°51'510.7
2018-Jun-21 14:30N 51°58' E 003°42'714.0
2018-Jun-21 14:00N 51°56' E 003°31'712.3
2018-Jun-21 13:26N 51°54' E 003°20'3111.2
2018-Jun-21 10:39N 51°42' E 002°34'211.1
2018-Jun-21 10:29N 51°40' E 002°32'511.3
2018-Jun-21 10:00N 51°36' E 002°26'611.6
2018-Jun-21 09:29N 51°32' E 002°20'611.7
2018-Jun-21 09:00N 51°27' E 002°15'612.4
2018-Jun-21 08:30N 51°21' E 002°10'612.7
2018-Jun-21 08:00N 51°16' E 002°06'612.9
2018-Jun-21 07:31N 51°12' E 001°58'713.7
2018-Jun-21 07:00N 51°08' E 001°49'612.3
2018-Jun-21 06:30N 51°04' E 001°42'612.5
2018-Jun-21 06:00N 50°59' E 001°35'713.7
2018-Jun-21 05:30N 50°54' E 001°29'1213.6
2018-Jun-21 04:39N 50°43' E 001°21'612.9
2018-Jun-21 04:12N 50°39' E 001°14'1212.8
2018-Jun-21 03:17N 50°31' E 001°01'412.8
2018-Jun-21 03:00N 50°30' E 000°56'613.0
2018-Jun-21 02:30N 50°28' E 000°46'712.8
2018-Jun-21 01:57N 50°26' E 000°35'813.5
2018-Jun-21 01:23N 50°24' E 000°24'1613.5
2018-Jun-21 00:11N 50°20' W 000°01'313.2
2018-Jun-20 23:57N 50°19' W 000°06'613.2
2018-Jun-20 23:30N 50°17' W 000°14'1413.3
2018-Jun-20 22:27N 50°13' W 000°36'8613.1
2018-Jun-20 15:55N 49°50' W 002°44'512.7
2018-Jun-20 15:30N 49°48' W 002°52'812.8
2018-Jun-20 14:51N 49°44' W 003°03'512.8
2018-Jun-20 14:27N 49°41' W 003°09'6212.9
2018-Jun-20 09:40N 49°11' W 004°32'213.3
2018-Jun-20 09:30N 49°09' W 004°35'1213.3
2018-Jun-20 08:35N 49°03' W 004°51'213.3
2018-Jun-20 08:24N 49°02' W 004°54'716.4
2018-Jun-20 08:00N 48°59' W 005°03'1017.3
2018-Jun-20 07:25N 48°54' W 005°16'717.5
2018-Jun-20 07:00N 48°50' W 005°26'1017.2
2018-Jun-20 06:27N 48°45' W 005°38'817.4
2018-Jun-20 05:59N 48°38' W 005°43'2017.0
2018-Jun-20 04:47N 48°20' W 005°57'1916.9
2018-Jun-20 03:39N 48°03' W 006°12'42414.7
2018-Jun-18 22:45N 41°13' W 008°47'414.5
2018-Jun-18 22:30N 41°10' W 008°43'1 2.4
2018-Jun-18 22:00N 41°11' W 008°42'0 0.0
2018-Jun-18 21:30N 41°11' W 008°42'0 0.0
2018-Jun-18 21:00N 41°11' W 008°42'0 0.0
2018-Jun-18 20:30N 41°11' W 008°42'0 0.0
2018-Jun-18 20:00N 41°11' W 008°42'0 0.0
2018-Jun-18 19:30N 41°11' W 008°42'0 0.0
2018-Jun-18 19:00N 41°11' W 008°42'0 0.0
2018-Jun-18 18:30N 41°11' W 008°42'0 0.0
2018-Jun-18 17:59N 41°11' W 008°42'0 0.0
2018-Jun-18 17:30N 41°11' W 008°42'0 0.0
2018-Jun-18 17:00N 41°11' W 008°42'0 0.0
2018-Jun-18 16:30N 41°11' W 008°42'0 0.0
2018-Jun-18 16:00N 41°11' W 008°42'0 0.0
2018-Jun-18 15:29N 41°11' W 008°42'0 0.0
2018-Jun-18 15:00N 41°11' W 008°42'0 0.0
2018-Jun-18 14:30N 41°11' W 008°42'0 0.0
2018-Jun-18 14:00N 41°11' W 008°42'0 0.0
2018-Jun-18 13:30N 41°11' W 008°42'0 0.0
2018-Jun-18 13:00N 41°11' W 008°42'0 0.0
2018-Jun-18 12:30N 41°11' W 008°42'0 0.0
2018-Jun-18 12:00N 41°11' W 008°42'0 0.0
2018-Jun-18 11:25N 41°11' W 008°42'0 0.0
2018-Jun-18 11:00N 41°11' W 008°42'0 0.0
2018-Jun-18 10:30N 41°11' W 008°42'0 0.0
2018-Jun-18 10:00N 41°11' W 008°42'0 0.0
2018-Jun-18 09:29N 41°11' W 008°42'0 0.0
2018-Jun-18 08:59N 41°11' W 008°42'0 0.0
2018-Jun-18 08:31N 41°11' W 008°42'0 0.0
2018-Jun-18 08:00N 41°11' W 008°42'0 0.0
2018-Jun-18 07:30N 41°11' W 008°42'0 0.0
2018-Jun-18 06:57N 41°11' W 008°42'0 0.7
2018-Jun-18 06:31N 41°11' W 008°42'2 4.5
2018-Jun-18 06:00N 41°09' W 008°45'56213.4
2018-Jun-16 12:06N 49°45' W 003°27'216.6
2018-Jun-16 12:00N 49°46' W 003°25'816.0
2018-Jun-16 11:30N 49°51' W 003°15'815.4
2018-Jun-16 11:00N 49°55' W 003°04'714.9
2018-Jun-16 10:30N 49°58' W 002°54'714.3
2018-Jun-16 10:00N 50°00' W 002°43'713.8
2018-Jun-16 09:30N 50°02' W 002°33'2013.3
2018-Jun-16 07:58N 50°10' W 002°03'1114.4
2018-Jun-16 07:12N 50°11' W 001°46'315.6
2018-Jun-16 06:58N 50°12' W 001°41'1817.1
2018-Jun-16 05:54N 50°17' W 001°13'1019.1
2018-Jun-16 05:24N 50°20' W 000°59'819.5
2018-Jun-16 05:00N 50°22' W 000°47'1719.3
2018-Jun-16 04:08N 50°27' W 000°22'418.7
2018-Jun-16 03:56N 50°28' W 000°17'918.3
2018-Jun-16 03:27N 50°31' W 000°03'818.0
2018-Jun-16 02:59N 50°33' E 000°10'817.7
2018-Jun-16 02:30N 50°35' E 000°22'917.2
2018-Jun-16 02:00N 50°38' E 000°35'816.3
2018-Jun-16 01:30N 50°43' E 000°46'815.6
2018-Jun-16 01:00N 50°47' E 000°56'815.1
2018-Jun-16 00:29N 50°52' E 001°05'714.8
2018-Jun-16 00:00N 50°57' E 001°14'714.7
2018-Jun-15 23:31N 51°02' E 001°23'816.1
2018-Jun-15 23:00N 51°07' E 001°33'917.2
2018-Jun-15 22:30N 51°12' E 001°43'816.2
2018-Jun-15 22:01N 51°19' E 001°51'816.1
2018-Jun-15 21:30N 51°26' E 001°57'918.7
2018-Jun-15 21:00N 51°32' E 002°08'918.4
2018-Jun-15 20:30N 51°39' E 002°18'918.1
2018-Jun-15 20:00N 51°46' E 002°27'917.3
2018-Jun-15 19:30N 51°53' E 002°36'816.8
2018-Jun-15 19:00N 51°58' E 002°46'815.9
2018-Jun-15 18:30N 52°01' E 002°58'817.0
2018-Jun-15 18:00N 52°02' E 003°12'816.8
2018-Jun-15 17:30N 52°02' E 003°26'816.5
2018-Jun-15 17:00N 52°03' E 003°39'815.7
2018-Jun-15 16:31N 52°03' E 003°52'3 5.4
2018-Jun-15 16:01N 52°02' E 003°55'5 9.6
2018-Jun-15 15:30N 51°60' E 004°02'510.2
2018-Jun-15 15:00N 51°57' E 004°09'4 7.2
2018-Jun-15 14:30N 51°55' E 004°13'1 1.4
2018-Jun-15 14:00N 51°54' E 004°14'0 0.0
2018-Jun-15 13:30N 51°54' E 004°14'0 0.0
2018-Jun-15 13:00N 51°54' E 004°14'0 0.0
2018-Jun-15 12:30N 51°54' E 004°14'0 0.0
2018-Jun-15 12:00N 51°54' E 004°14'0 0.0
2018-Jun-15 11:30N 51°54' E 004°14'0 0.0
2018-Jun-15 11:00N 51°54' E 004°14'0 0.0
2018-Jun-15 10:30N 51°54' E 004°14'0 0.0
2018-Jun-15 10:00N 51°54' E 004°14'0 0.0
2018-Jun-15 09:30N 51°54' E 004°14'0 0.0
2018-Jun-15 09:00N 51°54' E 004°14'0 0.0
2018-Jun-15 08:30N 51°54' E 004°14'0 0.0
2018-Jun-15 08:00N 51°54' E 004°14'0 0.0
2018-Jun-15 07:30N 51°54' E 004°14'0 0.0
2018-Jun-15 07:00N 51°54' E 004°14'0 0.0
2018-Jun-15 06:30N 51°54' E 004°14'0 0.0
2018-Jun-15 06:00N 51°54' E 004°14'0 0.0
2018-Jun-15 05:30N 51°54' E 004°14'0 0.0
2018-Jun-15 05:00N 51°54' E 004°14'0 0.0
2018-Jun-15 04:30N 51°54' E 004°14'0 0.0
2018-Jun-15 04:00N 51°54' E 004°14'0 0.0
2018-Jun-15 03:30N 51°54' E 004°14'0 0.0
2018-Jun-15 03:00N 51°54' E 004°14'0 0.0
2018-Jun-15 02:30N 51°54' E 004°14'0 0.0
2018-Jun-15 02:00N 51°54' E 004°14'0 0.0
2018-Jun-15 01:30N 51°54' E 004°14'0 0.0
2018-Jun-15 01:00N 51°54' E 004°14'0 0.0
2018-Jun-15 00:00N 51°54' E 004°14'0 0.0
2018-Jun-14 23:30N 51°54' E 004°14'0 0.0
2018-Jun-14 23:00N 51°54' E 004°14'0 0.0
2018-Jun-14 22:30N 51°54' E 004°14'0 0.0
2018-Jun-14 22:00N 51°54' E 004°14'0 0.0
2018-Jun-14 21:30N 51°54' E 004°14'0 0.0
2018-Jun-14 21:00N 51°54' E 004°14'0 0.0
2018-Jun-14 20:30N 51°54' E 004°14'0 0.0
2018-Jun-14 20:00N 51°54' E 004°14'0 0.0
2018-Jun-14 19:30N 51°54' E 004°14'0 0.0
2018-Jun-14 19:00N 51°54' E 004°14'0 0.0
2018-Jun-14 18:30N 51°54' E 004°14'0 0.0
2018-Jun-14 18:00N 51°54' E 004°14'0 0.0
2018-Jun-14 17:30N 51°54' E 004°14'0 0.1
2018-Jun-14 17:00N 51°54' E 004°14'1 2.9
2018-Jun-14 16:30N 51°55' E 004°13'4 7.6
2018-Jun-14 16:00N 51°58' E 004°08'611.7
2018-Jun-14 15:31N 51°60' E 003°59'611.7
2018-Jun-14 15:00N 52°00' E 003°50'611.4
2018-Jun-14 14:30N 51°58' E 003°41'611.2
2018-Jun-14 14:00N 51°57' E 003°32'611.3
2018-Jun-14 13:30N 51°55' E 003°24'611.4
2018-Jun-14 13:01N 51°53' E 003°15'2711.4
2018-Jun-14 10:39N 51°43' E 002°35'212.6
2018-Jun-14 10:28N 51°41' E 002°33'612.3
2018-Jun-14 10:00N 51°37' E 002°27'611.8
2018-Jun-14 09:30N 51°32' E 002°20'612.5
2018-Jun-14 09:00N 51°28' E 002°14'612.5
2018-Jun-14 08:30N 51°22' E 002°09'611.6
2018-Jun-14 08:01N 51°17' E 002°05'612.1
2018-Jun-14 07:31N 51°12' E 001°59'713.2
2018-Jun-14 07:00N 51°09' E 001°49'612.7
2018-Jun-14 06:30N 51°05' E 001°42'612.9
2018-Jun-14 06:00N 51°00' E 001°35'713.2
2018-Jun-14 05:30N 50°56' E 001°27'713.5
2018-Jun-14 05:00N 50°49' E 001°24'713.6
2018-Jun-14 04:30N 50°43' E 001°20'713.8
2018-Jun-14 04:00N 50°38' E 001°12'713.8
2018-Jun-14 03:31N 50°34' E 001°04'713.6
2018-Jun-14 03:00N 50°31' E 000°55'713.8
2018-Jun-14 02:31N 50°28' E 000°45'713.8
2018-Jun-14 02:00N 50°26' E 000°34'1013.7
2018-Jun-14 01:17N 50°23' E 000°19'413.5
2018-Jun-14 01:00N 50°22' E 000°14'713.5
2018-Jun-14 00:30N 50°21' E 000°03'713.7
2018-Jun-14 00:00N 50°19' W 000°07'713.7
2018-Jun-13 23:31N 50°17' W 000°17'713.2
2018-Jun-13 23:00N 50°16' W 000°27'713.1
2018-Jun-13 22:30N 50°13' W 000°37'713.1
2018-Jun-13 22:00N 50°11' W 000°47'713.4
2018-Jun-13 21:30N 50°09' W 000°57'713.4
2018-Jun-13 20:58N 50°07' W 001°08'613.4
2018-Jun-13 20:30N 50°06' W 001°17'713.6
2018-Jun-13 20:00N 50°04' W 001°27'713.5
2018-Jun-13 19:30N 50°02' W 001°37'713.6
2018-Jun-13 19:00N 49°60' W 001°47'713.6
2018-Jun-13 18:31N 49°58' W 001°57'713.9
2018-Jun-13 18:01N 49°56' W 002°08'1014.1
2018-Jun-13 17:19N 49°53' W 002°22'514.2
2018-Jun-13 16:56N 49°52' W 002°30'614.7
2018-Jun-13 16:30N 49°51' W 002°40'714.5
2018-Jun-13 16:00N 49°49' W 002°51'714.6
2018-Jun-13 15:31N 49°45' W 003°00'814.0
2018-Jun-13 14:55N 49°40' W 003°11'7414.3
2018-Jun-13 09:45N 49°04' W 004°49'514.6
2018-Jun-13 09:27N 49°02' W 004°55'1314.7
2018-Jun-13 08:34N 48°55' W 005°13'114.9
2018-Jun-13 08:30N 48°55' W 005°14'48614.7
2018-Jun-11 23:32N 41°13' W 008°47'115.8
2018-Jun-11 23:30N 41°12' W 008°46'3 6.6
2018-Jun-11 23:01N 41°11' W 008°42'0 0.5
2018-Jun-11 22:30N 41°11' W 008°42'0 0.0
2018-Jun-11 21:59N 41°11' W 008°42'0 0.0
2018-Jun-11 21:29N 41°11' W 008°42'0 0.0
2018-Jun-11 20:59N 41°11' W 008°42'0 0.0
2018-Jun-11 20:29N 41°11' W 008°42'0 0.0
2018-Jun-11 19:59N 41°11' W 008°42'0 0.0
2018-Jun-11 19:29N 41°11' W 008°42'0 0.0
2018-Jun-11 18:59N 41°11' W 008°42'0 0.0
2018-Jun-11 18:29N 41°11' W 008°42'  

Dump ship's entire track history